sensor_id;sensor_type;location;lat;lon;timestamp;temperature;humidity
44767;DHT22;30487;48.716;9.272;2023-03-23T00:01:09;14.10;72.00
44767;DHT22;30487;48.716;9.272;2023-03-23T00:03:46;14.20;71.90
44767;DHT22;30487;48.716;9.272;2023-03-23T00:06:12;14.30;71.80
44767;DHT22;30487;48.716;9.272;2023-03-23T00:08:46;14.30;71.80
44767;DHT22;30487;48.716;9.272;2023-03-23T00:11:13;14.40;71.70
44767;DHT22;30487;48.716;9.272;2023-03-23T00:13:44;14.40;71.70
44767;DHT22;30487;48.716;9.272;2023-03-23T00:16:12;14.40;71.80
44767;DHT22;30487;48.716;9.272;2023-03-23T00:18:47;14.40;71.90
44767;DHT22;30487;48.716;9.272;2023-03-23T00:21:13;14.50;72.10
44767;DHT22;30487;48.716;9.272;2023-03-23T00:23:39;14.50;72.20
44767;DHT22;30487;48.716;9.272;2023-03-23T00:26:05;14.50;72.50
44767;DHT22;30487;48.716;9.272;2023-03-23T00:28:31;14.40;72.50
44767;DHT22;30487;48.716;9.272;2023-03-23T00:31:02;14.40;72.80
44767;DHT22;30487;48.716;9.272;2023-03-23T00:33:30;14.40;73.20
44767;DHT22;30487;48.716;9.272;2023-03-23T00:35:59;14.40;73.30
44767;DHT22;30487;48.716;9.272;2023-03-23T00:38:25;14.40;73.30
44767;DHT22;30487;48.716;9.272;2023-03-23T00:40:50;14.40;73.50
44767;DHT22;30487;48.716;9.272;2023-03-23T00:43:18;14.40;73.30
44767;DHT22;30487;48.716;9.272;2023-03-23T00:45:44;14.40;73.50
44767;DHT22;30487;48.716;9.272;2023-03-23T00:48:14;14.40;73.50
44767;DHT22;30487;48.716;9.272;2023-03-23T00:50:40;14.40;73.30
44767;DHT22;30487;48.716;9.272;2023-03-23T00:53:06;14.40;73.30
44767;DHT22;30487;48.716;9.272;2023-03-23T00:55:32;14.40;73.30
44767;DHT22;30487;48.716;9.272;2023-03-23T00:57:59;14.40;73.30
44767;DHT22;30487;48.716;9.272;2023-03-23T01:00:24;14.40;73.30
44767;DHT22;30487;48.716;9.272;2023-03-23T01:02:50;14.40;73.20
44767;DHT22;30487;48.716;9.272;2023-03-23T01:05:17;14.40;73.20
44767;DHT22;30487;48.716;9.272;2023-03-23T01:07:43;14.40;73.40
44767;DHT22;30487;48.716;9.272;2023-03-23T01:10:10;14.40;73.60
44767;DHT22;30487;48.716;9.272;2023-03-23T01:12:43;14.40;74.10
44767;DHT22;30487;48.716;9.272;2023-03-23T01:15:12;14.40;74.30
44767;DHT22;30487;48.716;9.272;2023-03-23T01:17:38;14.40;74.60
44767;DHT22;30487;48.716;9.272;2023-03-23T01:20:04;14.30;75.00
44767;DHT22;30487;48.716;9.272;2023-03-23T01:22:32;14.20;75.20
44767;DHT22;30487;48.716;9.272;2023-03-23T01:24:58;14.20;75.30
44767;DHT22;30487;48.716;9.272;2023-03-23T01:27:23;14.30;75.10
44767;DHT22;30487;48.716;9.272;2023-03-23T01:29:49;14.30;75.00
44767;DHT22;30487;48.716;9.272;2023-03-23T01:32:15;14.30;74.10
44767;DHT22;30487;48.716;9.272;2023-03-23T01:34:41;14.30;73.90
44767;DHT22;30487;48.716;9.272;2023-03-23T01:37:07;14.40;73.70
44767;DHT22;30487;48.716;9.272;2023-03-23T01:39:32;14.40;73.40
44767;DHT22;30487;48.716;9.272;2023-03-23T01:41:58;14.40;73.40
44767;DHT22;30487;48.716;9.272;2023-03-23T01:46:49;14.30;73.30
44767;DHT22;30487;48.716;9.272;2023-03-23T01:49:21;14.40;73.60
44767;DHT22;30487;48.716;9.272;2023-03-23T01:51:51;14.40;74.40
44767;DHT22;30487;48.716;9.272;2023-03-23T01:54:20;14.40;74.10
44767;DHT22;30487;48.716;9.272;2023-03-23T01:57:00;14.40;74.40
44767;DHT22;30487;48.716;9.272;2023-03-23T01:59:28;14.40;74.50
44767;DHT22;30487;48.716;9.272;2023-03-23T02:01:55;14.40;74.70
44767;DHT22;30487;48.716;9.272;2023-03-23T02:04:22;14.30;74.80
44767;DHT22;30487;48.716;9.272;2023-03-23T02:06:48;14.30;74.80
44767;DHT22;30487;48.716;9.272;2023-03-23T02:09:16;14.30;74.80
44767;DHT22;30487;48.716;9.272;2023-03-23T02:11:43;14.30;74.90
44767;DHT22;30487;48.716;9.272;2023-03-23T02:14:09;14.30;75.20
44767;DHT22;30487;48.716;9.272;2023-03-23T02:16:43;14.30;75.00
44767;DHT22;30487;48.716;9.272;2023-03-23T02:33:59;14.20;75.10
44767;DHT22;30487;48.716;9.272;2023-03-23T02:36:39;14.20;75.40
44767;DHT22;30487;48.716;9.272;2023-03-23T02:39:29;14.20;75.60
44767;DHT22;30487;48.716;9.272;2023-03-23T02:42:04;14.20;75.90
44767;DHT22;30487;48.716;9.272;2023-03-23T02:44:32;14.20;75.90
44767;DHT22;30487;48.716;9.272;2023-03-23T02:47:00;14.20;76.00
44767;DHT22;30487;48.716;9.272;2023-03-23T02:49:31;14.20;76.00
44767;DHT22;30487;48.716;9.272;2023-03-23T02:51:59;14.20;76.20
44767;DHT22;30487;48.716;9.272;2023-03-23T02:54:27;14.20;76.30
44767;DHT22;30487;48.716;9.272;2023-03-23T02:56:54;14.20;76.50
44767;DHT22;30487;48.716;9.272;2023-03-23T02:59:21;14.20;76.70
44767;DHT22;30487;48.716;9.272;2023-03-23T03:02:17;14.20;76.70
44767;DHT22;30487;48.716;9.272;2023-03-23T03:04:54;14.20;77.30
44767;DHT22;30487;48.716;9.272;2023-03-23T03:07:39;14.20;77.00
44767;DHT22;30487;48.716;9.272;2023-03-23T03:10:22;14.20;77.10
44767;DHT22;30487;48.716;9.272;2023-03-23T03:13:27;14.20;76.90
44767;DHT22;30487;48.716;9.272;2023-03-23T03:16:10;14.10;77.10
44767;DHT22;30487;48.716;9.272;2023-03-23T03:21:25;14.10;77.40
44767;DHT22;30487;48.716;9.272;2023-03-23T03:23:55;14.10;77.30
44767;DHT22;30487;48.716;9.272;2023-03-23T03:26:24;14.00;77.50
44767;DHT22;30487;48.716;9.272;2023-03-23T03:28:52;14.00;78.20
44767;DHT22;30487;48.716;9.272;2023-03-23T03:31:22;14.00;77.70
44767;DHT22;30487;48.716;9.272;2023-03-23T03:33:49;14.10;78.00
44767;DHT22;30487;48.716;9.272;2023-03-23T03:36:18;14.00;78.10
44767;DHT22;30487;48.716;9.272;2023-03-23T03:38:48;14.00;78.20
44767;DHT22;30487;48.716;9.272;2023-03-23T03:41:15;14.00;78.30
44767;DHT22;30487;48.716;9.272;2023-03-23T03:43:41;14.00;78.90
44767;DHT22;30487;48.716;9.272;2023-03-23T03:46:06;14.00;78.20
44767;DHT22;30487;48.716;9.272;2023-03-23T03:48:32;14.00;78.10
44767;DHT22;30487;48.716;9.272;2023-03-23T03:50:58;13.90;78.00
44767;DHT22;30487;48.716;9.272;2023-03-23T03:53:28;13.90;78.00
44767;DHT22;30487;48.716;9.272;2023-03-23T03:55:55;13.90;78.10
44767;DHT22;30487;48.716;9.272;2023-03-23T03:58:22;13.90;77.90
44767;DHT22;30487;48.716;9.272;2023-03-23T04:00:48;13.90;78.00
44767;DHT22;30487;48.716;9.272;2023-03-23T04:03:15;13.90;78.20
44767;DHT22;30487;48.716;9.272;2023-03-23T04:05:42;13.90;78.10
44767;DHT22;30487;48.716;9.272;2023-03-23T04:08:10;13.90;78.20
44767;DHT22;30487;48.716;9.272;2023-03-23T04:10:36;13.90;78.40
44767;DHT22;30487;48.716;9.272;2023-03-23T04:13:02;13.90;78.40
44767;DHT22;30487;48.716;9.272;2023-03-23T04:15:30;13.90;78.50
44767;DHT22;30487;48.716;9.272;2023-03-23T04:17:56;14.00;78.70
44767;DHT22;30487;48.716;9.272;2023-03-23T04:20:22;13.90;78.70
44767;DHT22;30487;48.716;9.272;2023-03-23T04:22:48;14.00;78.90
44767;DHT22;30487;48.716;9.272;2023-03-23T04:25:17;14.00;78.90
44767;DHT22;30487;48.716;9.272;2023-03-23T04:27:46;14.00;79.00
44767;DHT22;30487;48.716;9.272;2023-03-23T04:30:19;14.00;78.80
44767;DHT22;30487;48.716;9.272;2023-03-23T04:32:45;13.90;79.40
44767;DHT22;30487;48.716;9.272;2023-03-23T04:35:12;13.90;79.00
44767;DHT22;30487;48.716;9.272;2023-03-23T04:37:39;13.90;79.20
44767;DHT22;30487;48.716;9.272;2023-03-23T04:40:07;13.90;79.20
44767;DHT22;30487;48.716;9.272;2023-03-23T04:42:36;13.90;79.40
44767;DHT22;30487;48.716;9.272;2023-03-23T04:45:03;13.70;80.00
44767;DHT22;30487;48.716;9.272;2023-03-23T04:47:33;13.60;80.10
44767;DHT22;30487;48.716;9.272;2023-03-23T04:49:59;13.50;80.30
44767;DHT22;30487;48.716;9.272;2023-03-23T04:52:26;13.40;80.70
44767;DHT22;30487;48.716;9.272;2023-03-23T04:54:54;13.40;81.00
44767;DHT22;30487;48.716;9.272;2023-03-23T04:57:21;13.50;80.90
44767;DHT22;30487;48.716;9.272;2023-03-23T04:59:47;13.60;80.50
44767;DHT22;30487;48.716;9.272;2023-03-23T05:02:13;13.70;80.50
44767;DHT22;30487;48.716;9.272;2023-03-23T05:04:40;13.70;80.50
44767;DHT22;30487;48.716;9.272;2023-03-23T05:07:06;13.80;80.10
44767;DHT22;30487;48.716;9.272;2023-03-23T05:09:33;13.90;79.80
44767;DHT22;30487;48.716;9.272;2023-03-23T05:12:06;13.90;79.90
44767;DHT22;30487;48.716;9.272;2023-03-23T05:14:32;13.90;80.40
44767;DHT22;30487;48.716;9.272;2023-03-23T05:16:58;13.90;80.30
44767;DHT22;30487;48.716;9.272;2023-03-23T05:19:23;14.00;80.20
44767;DHT22;30487;48.716;9.272;2023-03-23T05:21:49;14.00;80.40
44767;DHT22;30487;48.716;9.272;2023-03-23T05:24:14;13.90;81.00
44767;DHT22;30487;48.716;9.272;2023-03-23T05:26:40;13.90;81.40
44767;DHT22;30487;48.716;9.272;2023-03-23T05:29:06;14.00;80.90
44767;DHT22;30487;48.716;9.272;2023-03-23T05:31:31;14.00;80.40
44767;DHT22;30487;48.716;9.272;2023-03-23T05:33:57;14.00;79.70
44767;DHT22;30487;48.716;9.272;2023-03-23T05:36:23;13.90;80.00
44767;DHT22;30487;48.716;9.272;2023-03-23T05:38:51;14.00;80.00
44767;DHT22;30487;48.716;9.272;2023-03-23T05:41:16;13.90;80.00
44767;DHT22;30487;48.716;9.272;2023-03-23T05:43:42;13.90;80.60
44767;DHT22;30487;48.716;9.272;2023-03-23T05:46:08;13.90;81.20
44767;DHT22;30487;48.716;9.272;2023-03-23T05:48:34;13.90;80.80
44767;DHT22;30487;48.716;9.272;2023-03-23T05:51:00;13.90;80.80
44767;DHT22;30487;48.716;9.272;2023-03-23T05:53:26;14.00;80.70
44767;DHT22;30487;48.716;9.272;2023-03-23T05:55:52;14.00;80.60
44767;DHT22;30487;48.716;9.272;2023-03-23T05:58:18;14.00;80.40
44767;DHT22;30487;48.716;9.272;2023-03-23T06:00:44;14.00;80.00
44767;DHT22;30487;48.716;9.272;2023-03-23T06:03:10;14.00;80.50
44767;DHT22;30487;48.716;9.272;2023-03-23T06:05:42;14.00;80.20
44767;DHT22;30487;48.716;9.272;2023-03-23T06:08:09;14.00;80.50
44767;DHT22;30487;48.716;9.272;2023-03-23T06:10:35;14.00;80.40
44767;DHT22;30487;48.716;9.272;2023-03-23T06:13:02;14.10;81.20
44767;DHT22;30487;48.716;9.272;2023-03-23T06:15:28;14.10;80.80
44767;DHT22;30487;48.716;9.272;2023-03-23T06:17:58;14.10;80.30
44767;DHT22;30487;48.716;9.272;2023-03-23T06:20:24;14.20;80.90
44767;DHT22;30487;48.716;9.272;2023-03-23T06:22:50;14.20;81.40
44767;DHT22;30487;48.716;9.272;2023-03-23T06:25:17;14.20;81.00
44767;DHT22;30487;48.716;9.272;2023-03-23T06:27:43;14.20;80.70
44767;DHT22;30487;48.716;9.272;2023-03-23T06:30:10;14.20;80.90
44767;DHT22;30487;48.716;9.272;2023-03-23T06:32:36;14.20;81.00
44767;DHT22;30487;48.716;9.272;2023-03-23T06:35:02;14.20;80.90
44767;DHT22;30487;48.716;9.272;2023-03-23T06:37:28;14.30;81.20
44767;DHT22;30487;48.716;9.272;2023-03-23T06:39:54;14.30;81.30
44767;DHT22;30487;48.716;9.272;2023-03-23T06:42:21;14.30;81.40
44767;DHT22;30487;48.716;9.272;2023-03-23T06:44:47;14.30;81.20
44767;DHT22;30487;48.716;9.272;2023-03-23T06:47:12;14.20;80.70
44767;DHT22;30487;48.716;9.272;2023-03-23T06:49:38;14.10;81.20
44767;DHT22;30487;48.716;9.272;2023-03-23T06:52:04;14.10;81.20
44767;DHT22;30487;48.716;9.272;2023-03-23T06:54:31;14.10;81.10
44767;DHT22;30487;48.716;9.272;2023-03-23T06:56:57;14.10;81.80
44767;DHT22;30487;48.716;9.272;2023-03-23T06:59:22;14.20;81.20
44767;DHT22;30487;48.716;9.272;2023-03-23T07:01:48;14.20;81.40
44767;DHT22;30487;48.716;9.272;2023-03-23T07:04:14;14.30;81.50
44767;DHT22;30487;48.716;9.272;2023-03-23T07:06:39;14.40;81.50
44767;DHT22;30487;48.716;9.272;2023-03-23T07:09:05;14.60;81.60
44767;DHT22;30487;48.716;9.272;2023-03-23T07:11:32;14.70;81.70
44767;DHT22;30487;48.716;9.272;2023-03-23T07:13:57;14.70;81.00
44767;DHT22;30487;48.716;9.272;2023-03-23T07:16:23;14.70;80.80
44767;DHT22;30487;48.716;9.272;2023-03-23T07:18:49;14.80;80.90
44767;DHT22;30487;48.716;9.272;2023-03-23T07:21:15;14.80;81.30
44767;DHT22;30487;48.716;9.272;2023-03-23T07:23:41;14.80;80.90
44767;DHT22;30487;48.716;9.272;2023-03-23T07:26:07;14.80;81.20
44767;DHT22;30487;48.716;9.272;2023-03-23T07:28:32;14.80;81.70
44767;DHT22;30487;48.716;9.272;2023-03-23T07:30:58;14.70;80.90
44767;DHT22;30487;48.716;9.272;2023-03-23T07:33:24;14.80;80.40
44767;DHT22;30487;48.716;9.272;2023-03-23T07:35:49;14.70;80.50
44767;DHT22;30487;48.716;9.272;2023-03-23T07:38:15;14.70;80.90
44767;DHT22;30487;48.716;9.272;2023-03-23T07:40:41;14.80;84.40
44767;DHT22;30487;48.716;9.272;2023-03-23T07:43:07;14.80;81.40
44767;DHT22;30487;48.716;9.272;2023-03-23T07:45:32;14.70;80.40
44767;DHT22;30487;48.716;9.272;2023-03-23T07:47:58;14.70;80.40
44767;DHT22;30487;48.716;9.272;2023-03-23T07:50:24;14.70;81.00
44767;DHT22;30487;48.716;9.272;2023-03-23T07:52:57;14.80;80.60
44767;DHT22;30487;48.716;9.272;2023-03-23T07:55:24;14.70;80.80
44767;DHT22;30487;48.716;9.272;2023-03-23T07:57:51;14.80;80.80
44767;DHT22;30487;48.716;9.272;2023-03-23T08:00:18;14.90;81.30
44767;DHT22;30487;48.716;9.272;2023-03-23T08:02:58;15.00;81.10
44767;DHT22;30487;48.716;9.272;2023-03-23T08:05:25;15.10;81.00
44767;DHT22;30487;48.716;9.272;2023-03-23T08:07:52;15.20;80.70
44767;DHT22;30487;48.716;9.272;2023-03-23T08:10:20;15.30;80.80
44767;DHT22;30487;48.716;9.272;2023-03-23T08:12:54;15.30;81.80
44767;DHT22;30487;48.716;9.272;2023-03-23T08:15:21;15.40;81.60
44767;DHT22;30487;48.716;9.272;2023-03-23T08:17:47;15.40;80.20
44767;DHT22;30487;48.716;9.272;2023-03-23T08:20:13;15.40;79.60
44767;DHT22;30487;48.716;9.272;2023-03-23T08:22:42;15.40;80.40
44767;DHT22;30487;48.716;9.272;2023-03-23T08:25:09;15.40;79.50
44767;DHT22;30487;48.716;9.272;2023-03-23T08:27:37;15.40;80.20
44767;DHT22;30487;48.716;9.272;2023-03-23T08:30:05;15.50;80.60
44767;DHT22;30487;48.716;9.272;2023-03-23T08:32:34;15.50;80.40
44767;DHT22;30487;48.716;9.272;2023-03-23T08:35:00;15.60;79.80
44767;DHT22;30487;48.716;9.272;2023-03-23T08:37:26;15.70;80.90
44767;DHT22;30487;48.716;9.272;2023-03-23T08:39:53;15.80;81.50
44767;DHT22;30487;48.716;9.272;2023-03-23T08:42:19;15.80;80.40
44767;DHT22;30487;48.716;9.272;2023-03-23T08:44:45;15.80;80.70
44767;DHT22;30487;48.716;9.272;2023-03-23T08:47:10;15.70;81.70
44767;DHT22;30487;48.716;9.272;2023-03-23T08:49:36;15.80;82.00
44767;DHT22;30487;48.716;9.272;2023-03-23T08:52:02;15.80;81.70
44767;DHT22;30487;48.716;9.272;2023-03-23T08:54:28;15.90;81.60
44767;DHT22;30487;48.716;9.272;2023-03-23T08:56:58;15.80;82.10
44767;DHT22;30487;48.716;9.272;2023-03-23T08:59:24;15.80;82.40
44767;DHT22;30487;48.716;9.272;2023-03-23T09:01:50;15.70;82.60
44767;DHT22;30487;48.716;9.272;2023-03-23T09:04:16;15.60;82.30
44767;DHT22;30487;48.716;9.272;2023-03-23T09:06:42;15.70;82.90
44767;DHT22;30487;48.716;9.272;2023-03-23T09:09:08;15.60;83.10
44767;DHT22;30487;48.716;9.272;2023-03-23T09:11:35;15.60;83.00
44767;DHT22;30487;48.716;9.272;2023-03-23T09:14:02;15.60;83.30
44767;DHT22;30487;48.716;9.272;2023-03-23T09:16:28;15.60;84.10
44767;DHT22;30487;48.716;9.272;2023-03-23T09:18:54;15.70;83.80
44767;DHT22;30487;48.716;9.272;2023-03-23T09:21:25;15.70;83.70
44767;DHT22;30487;48.716;9.272;2023-03-23T09:23:53;15.80;83.70
44767;DHT22;30487;48.716;9.272;2023-03-23T09:26:27;15.80;84.50
44767;DHT22;30487;48.716;9.272;2023-03-23T09:28:53;15.80;84.60
44767;DHT22;30487;48.716;9.272;2023-03-23T09:31:19;15.90;84.60
44767;DHT22;30487;48.716;9.272;2023-03-23T09:33:48;15.90;84.50
44767;DHT22;30487;48.716;9.272;2023-03-23T09:36:18;16.10;84.90
44767;DHT22;30487;48.716;9.272;2023-03-23T09:38:43;16.10;85.40
44767;DHT22;30487;48.716;9.272;2023-03-23T09:49:41;16.00;84.50
44767;DHT22;30487;48.716;9.272;2023-03-23T09:52:14;16.00;85.00
44767;DHT22;30487;48.716;9.272;2023-03-23T09:54:48;16.00;84.90
44767;DHT22;30487;48.716;9.272;2023-03-23T09:57:51;16.00;85.60
44767;DHT22;30487;48.716;9.272;2023-03-23T10:00:23;16.10;86.40
44767;DHT22;30487;48.716;9.272;2023-03-23T10:05:38;16.00;85.10
44767;DHT22;30487;48.716;9.272;2023-03-23T10:08:18;16.10;85.40
44767;DHT22;30487;48.716;9.272;2023-03-23T10:16:07;16.20;85.70
44767;DHT22;30487;48.716;9.272;2023-03-23T10:18:39;16.20;86.30
44767;DHT22;30487;48.716;9.272;2023-03-23T10:21:13;16.30;86.00
44767;DHT22;30487;48.716;9.272;2023-03-23T10:23:58;16.40;86.00
44767;DHT22;30487;48.716;9.272;2023-03-23T10:31:44;16.60;83.60
44767;DHT22;30487;48.716;9.272;2023-03-23T10:34:16;16.60;84.20
44767;DHT22;30487;48.716;9.272;2023-03-23T10:37:05;16.60;83.50
44767;DHT22;30487;48.716;9.272;2023-03-23T10:39:48;16.60;84.20
44767;DHT22;30487;48.716;9.272;2023-03-23T10:42:26;16.50;84.30
44767;DHT22;30487;48.716;9.272;2023-03-23T10:44:53;16.50;84.50
44767;DHT22;30487;48.716;9.272;2023-03-23T10:47:20;16.50;84.60
44767;DHT22;30487;48.716;9.272;2023-03-23T10:49:58;16.40;84.50
44767;DHT22;30487;48.716;9.272;2023-03-23T10:52:37;16.40;85.40
44767;DHT22;30487;48.716;9.272;2023-03-23T10:55:20;16.40;84.50
44767;DHT22;30487;48.716;9.272;2023-03-23T10:58:06;16.50;84.50
44767;DHT22;30487;48.716;9.272;2023-03-23T11:00:32;16.60;84.60
44767;DHT22;30487;48.716;9.272;2023-03-23T11:05:42;16.50;84.80
44767;DHT22;30487;48.716;9.272;2023-03-23T11:08:18;16.70;84.50
44767;DHT22;30487;48.716;9.272;2023-03-23T11:11:14;16.80;84.50
44767;DHT22;30487;48.716;9.272;2023-03-23T11:13:47;16.80;84.70
44767;DHT22;30487;48.716;9.272;2023-03-23T11:16:27;16.90;85.40
44767;DHT22;30487;48.716;9.272;2023-03-23T11:18:54;16.90;84.00
44767;DHT22;30487;48.716;9.272;2023-03-23T11:21:22;17.00;84.80
44767;DHT22;30487;48.716;9.272;2023-03-23T11:23:57;17.10;85.80
44767;DHT22;30487;48.716;9.272;2023-03-23T11:26:32;17.10;86.00
44767;DHT22;30487;48.716;9.272;2023-03-23T11:29:13;17.10;84.50
44767;DHT22;30487;48.716;9.272;2023-03-23T11:31:48;17.00;84.50
44767;DHT22;30487;48.716;9.272;2023-03-23T11:34:30;16.90;84.50
44767;DHT22;30487;48.716;9.272;2023-03-23T11:37:15;17.00;85.00
44767;DHT22;30487;48.716;9.272;2023-03-23T11:42:34;17.10;86.60
44767;DHT22;30487;48.716;9.272;2023-03-23T11:47:53;17.10;84.80
44767;DHT22;30487;48.716;9.272;2023-03-23T11:50:26;17.20;86.00
44767;DHT22;30487;48.716;9.272;2023-03-23T11:55:28;17.20;85.20
44767;DHT22;30487;48.716;9.272;2023-03-23T11:57:59;17.30;85.70
44767;DHT22;30487;48.716;9.272;2023-03-23T12:00:25;17.40;85.00
44767;DHT22;30487;48.716;9.272;2023-03-23T12:03:11;17.30;83.90
44767;DHT22;30487;48.716;9.272;2023-03-23T12:12:04;17.70;85.50
44767;DHT22;30487;48.716;9.272;2023-03-23T12:22:24;17.40;83.40
44767;DHT22;30487;48.716;9.272;2023-03-23T12:39:48;17.30;82.00
44767;DHT22;30487;48.716;9.272;2023-03-23T12:42:23;17.30;81.60
44767;DHT22;30487;48.716;9.272;2023-03-23T12:45:06;17.10;81.40
44767;DHT22;30487;48.716;9.272;2023-03-23T12:47:49;17.20;82.70
44767;DHT22;30487;48.716;9.272;2023-03-23T12:52:59;17.40;82.00
44767;DHT22;30487;48.716;9.272;2023-03-23T12:55:48;17.50;82.60
44767;DHT22;30487;48.716;9.272;2023-03-23T12:58:16;17.60;81.30
44767;DHT22;30487;48.716;9.272;2023-03-23T13:03:56;17.60;81.80
44767;DHT22;30487;48.716;9.272;2023-03-23T13:12:02;17.80;81.20
44767;DHT22;30487;48.716;9.272;2023-03-23T13:14:37;17.90;80.80
44767;DHT22;30487;48.716;9.272;2023-03-23T13:17:18;17.90;80.70
44767;DHT22;30487;48.716;9.272;2023-03-23T13:26:13;17.70;80.90
44767;DHT22;30487;48.716;9.272;2023-03-23T13:28:51;17.90;81.40
44767;DHT22;30487;48.716;9.272;2023-03-23T13:31:31;17.90;80.90
44767;DHT22;30487;48.716;9.272;2023-03-23T13:34:12;17.80;79.80
44767;DHT22;30487;48.716;9.272;2023-03-23T13:36:43;17.70;80.00
44767;DHT22;30487;48.716;9.272;2023-03-23T13:39:27;17.70;81.20
44767;DHT22;30487;48.716;9.272;2023-03-23T13:47:40;17.70;79.90
44767;DHT22;30487;48.716;9.272;2023-03-23T13:52:38;17.50;81.00
44767;DHT22;30487;48.716;9.272;2023-03-23T13:55:30;17.60;80.90
44767;DHT22;30487;48.716;9.272;2023-03-23T14:05:37;17.60;80.70
44767;DHT22;30487;48.716;9.272;2023-03-23T14:08:10;17.50;79.20
44767;DHT22;30487;48.716;9.272;2023-03-23T14:13:29;17.40;79.90
44767;DHT22;30487;48.716;9.272;2023-03-23T14:16:05;17.40;79.70
44767;DHT22;30487;48.716;9.272;2023-03-23T14:18:42;17.40;79.50
44767;DHT22;30487;48.716;9.272;2023-03-23T14:21:21;17.30;79.60
44767;DHT22;30487;48.716;9.272;2023-03-23T14:23:47;17.30;79.40
44767;DHT22;30487;48.716;9.272;2023-03-23T14:26:17;17.30;79.70
44767;DHT22;30487;48.716;9.272;2023-03-23T14:28:45;17.20;79.00
44767;DHT22;30487;48.716;9.272;2023-03-23T14:31:21;17.20;78.10
44767;DHT22;30487;48.716;9.272;2023-03-23T14:33:49;17.20;77.80
44767;DHT22;30487;48.716;9.272;2023-03-23T14:36:26;17.20;77.90
44767;DHT22;30487;48.716;9.272;2023-03-23T14:41:47;17.10;78.10
44767;DHT22;30487;48.716;9.272;2023-03-23T14:44:17;17.10;77.60
44767;DHT22;30487;48.716;9.272;2023-03-23T14:46:44;17.10;78.20
44767;DHT22;30487;48.716;9.272;2023-03-23T14:49:14;17.00;77.60
44767;DHT22;30487;48.716;9.272;2023-03-23T14:51:50;17.00;78.00
44767;DHT22;30487;48.716;9.272;2023-03-23T14:54:31;17.00;78.30
44767;DHT22;30487;48.716;9.272;2023-03-23T14:57:07;17.10;78.60
44767;DHT22;30487;48.716;9.272;2023-03-23T14:59:34;17.10;78.20
44767;DHT22;30487;48.716;9.272;2023-03-23T15:02:00;17.10;78.40
44767;DHT22;30487;48.716;9.272;2023-03-23T15:04:27;17.10;78.60
44767;DHT22;30487;48.716;9.272;2023-03-23T15:06:59;17.20;78.30
44767;DHT22;30487;48.716;9.272;2023-03-23T15:09:26;17.20;77.50
44767;DHT22;30487;48.716;9.272;2023-03-23T15:11:59;17.20;77.20
44767;DHT22;30487;48.716;9.272;2023-03-23T15:14:46;17.20;77.40
44767;DHT22;30487;48.716;9.272;2023-03-23T15:17:34;17.20;78.50
44767;DHT22;30487;48.716;9.272;2023-03-23T15:20:08;17.20;78.80
44767;DHT22;30487;48.716;9.272;2023-03-23T15:22:34;17.10;77.10
44767;DHT22;30487;48.716;9.272;2023-03-23T15:25:09;17.10;77.50
44767;DHT22;30487;48.716;9.272;2023-03-23T15:27:41;17.20;77.40
44767;DHT22;30487;48.716;9.272;2023-03-23T15:30:30;17.10;76.90
44767;DHT22;30487;48.716;9.272;2023-03-23T15:33:16;17.20;76.80
44767;DHT22;30487;48.716;9.272;2023-03-23T15:35:48;17.00;76.70
44767;DHT22;30487;48.716;9.272;2023-03-23T15:38:18;16.90;77.30
44767;DHT22;30487;48.716;9.272;2023-03-23T15:40:49;16.90;77.40
44767;DHT22;30487;48.716;9.272;2023-03-23T15:43:27;16.90;77.80
44767;DHT22;30487;48.716;9.272;2023-03-23T15:49:08;16.90;77.90
44767;DHT22;30487;48.716;9.272;2023-03-23T15:51:35;16.80;77.70
44767;DHT22;30487;48.716;9.272;2023-03-23T15:54:02;16.80;78.30
44767;DHT22;30487;48.716;9.272;2023-03-23T15:56:28;16.80;78.40
44767;DHT22;30487;48.716;9.272;2023-03-23T15:58:54;16.70;78.10
44767;DHT22;30487;48.716;9.272;2023-03-23T16:01:25;16.70;78.30
44767;DHT22;30487;48.716;9.272;2023-03-23T16:03:52;16.70;78.80
44767;DHT22;30487;48.716;9.272;2023-03-23T16:06:19;16.70;78.70
44767;DHT22;30487;48.716;9.272;2023-03-23T16:08:46;16.70;78.50
44767;DHT22;30487;48.716;9.272;2023-03-23T16:11:13;16.70;78.40
44767;DHT22;30487;48.716;9.272;2023-03-23T16:13:39;16.70;78.30
44767;DHT22;30487;48.716;9.272;2023-03-23T16:16:06;16.60;78.40
44767;DHT22;30487;48.716;9.272;2023-03-23T16:18:36;16.60;78.10
44767;DHT22;30487;48.716;9.272;2023-03-23T16:21:01;16.60;78.40
44767;DHT22;30487;48.716;9.272;2023-03-23T16:23:28;16.50;78.80
44767;DHT22;30487;48.716;9.272;2023-03-23T16:25:53;16.50;79.10
44767;DHT22;30487;48.716;9.272;2023-03-23T16:28:19;16.50;78.50
44767;DHT22;30487;48.716;9.272;2023-03-23T16:30:46;16.50;79.50
44767;DHT22;30487;48.716;9.272;2023-03-23T16:33:12;16.40;79.10
44767;DHT22;30487;48.716;9.272;2023-03-23T16:35:38;16.30;79.80
44767;DHT22;30487;48.716;9.272;2023-03-23T16:38:04;16.30;79.60
44767;DHT22;30487;48.716;9.272;2023-03-23T16:40:30;16.30;80.00
44767;DHT22;30487;48.716;9.272;2023-03-23T16:42:56;16.30;80.00
44767;DHT22;30487;48.716;9.272;2023-03-23T16:45:22;16.30;80.30
44767;DHT22;30487;48.716;9.272;2023-03-23T16:47:48;16.20;81.30
44767;DHT22;30487;48.716;9.272;2023-03-23T16:50:15;16.20;81.00
44767;DHT22;30487;48.716;9.272;2023-03-23T16:52:43;16.20;80.90
44767;DHT22;30487;48.716;9.272;2023-03-23T16:55:10;16.20;80.60
44767;DHT22;30487;48.716;9.272;2023-03-23T16:57:37;16.20;80.70
44767;DHT22;30487;48.716;9.272;2023-03-23T17:00:04;16.10;80.70
44767;DHT22;30487;48.716;9.272;2023-03-23T17:02:31;16.10;80.50
44767;DHT22;30487;48.716;9.272;2023-03-23T17:04:56;16.10;80.80
44767;DHT22;30487;48.716;9.272;2023-03-23T17:07:22;16.10;81.30
44767;DHT22;30487;48.716;9.272;2023-03-23T17:09:48;16.10;83.90
44767;DHT22;30487;48.716;9.272;2023-03-23T17:12:14;16.10;81.70
44767;DHT22;30487;48.716;9.272;2023-03-23T17:14:40;16.00;81.50
44767;DHT22;30487;48.716;9.272;2023-03-23T17:17:06;16.00;81.80
44767;DHT22;30487;48.716;9.272;2023-03-23T17:19:32;16.00;82.00
44767;DHT22;30487;48.716;9.272;2023-03-23T17:21:57;16.00;82.20
44767;DHT22;30487;48.716;9.272;2023-03-23T17:24:23;16.00;82.40
44767;DHT22;30487;48.716;9.272;2023-03-23T17:26:49;15.90;82.10
44767;DHT22;30487;48.716;9.272;2023-03-23T17:29:15;16.00;82.40
44767;DHT22;30487;48.716;9.272;2023-03-23T17:31:40;16.00;82.70
44767;DHT22;30487;48.716;9.272;2023-03-23T17:34:06;16.00;82.80
44767;DHT22;30487;48.716;9.272;2023-03-23T17:36:32;16.00;82.60
44767;DHT22;30487;48.716;9.272;2023-03-23T17:38:57;16.00;82.80
44767;DHT22;30487;48.716;9.272;2023-03-23T17:41:23;16.00;82.60
44767;DHT22;30487;48.716;9.272;2023-03-23T17:43:48;16.00;83.20
44767;DHT22;30487;48.716;9.272;2023-03-23T17:46:14;16.00;82.90
44767;DHT22;30487;48.716;9.272;2023-03-23T17:48:40;15.90;83.10